Cherry Brook, Connecticut
Current Conditions -  °F | °C
As of 3:32 AM on Sunday 21 Dec 2014 (Local Time) from KBDL Reporting Station
Light Snow Light Snow  
Wind Chill: 25°   Ceiling: 2500
Heat Index: 31°   Visibility: 5mi
Dew Point: 28°   Wind: 6mph
Humidity: 89%   Direction: 360°N
Pressure: 30.27"   Gusts: NA
Location:  41.8586°N, 72.9136°W
Report Text: KBDL 210832Z 36005KT 5SM -SN BR FEW006 OVC025 M01/M02 A3027 RMK AO2 P0000 T10061022 $
Loading
Personal Weather Stations






























Interactive Weather Map New forecast layout! Learn more

10-Day Weather Forecast

Advertisements
Track Severe Weather on mobile